createdAt,value
2023-01-29T00:04:51.274Z,2.4
2023-01-29T00:09:51.226Z,2.4
2023-01-29T00:14:51.225Z,2.4
2023-01-29T00:19:51.236Z,2.4
2023-01-29T00:24:51.236Z,2.4
2023-01-29T00:29:51.233Z,2.4
2023-01-29T00:34:51.293Z,2.4
2023-01-29T00:39:51.252Z,2.4
2023-01-29T00:44:51.254Z,2.4
2023-01-29T00:49:51.253Z,2.4
2023-01-29T00:54:51.257Z,2.4
2023-01-29T00:59:51.258Z,2.4
2023-01-29T01:04:51.361Z,2.4
2023-01-29T01:09:51.263Z,2.4
2023-01-29T01:14:51.256Z,2.5
2023-01-29T01:19:51.276Z,2.5
2023-01-29T01:24:51.272Z,2.5
2023-01-29T01:29:51.282Z,2.5
2023-01-29T01:34:51.292Z,2.5
2023-01-29T01:39:51.268Z,2.5
2023-01-29T01:44:51.292Z,2.5
2023-01-29T01:49:51.368Z,2.5
2023-01-29T01:54:51.291Z,2.5
2023-01-29T01:59:51.288Z,2.5
2023-01-29T02:04:51.301Z,2.5
2023-01-29T02:09:51.295Z,2.5
2023-01-29T02:14:51.293Z,2.4
2023-01-29T02:19:51.355Z,2.5
2023-01-29T02:24:51.300Z,2.4
2023-01-29T02:29:51.298Z,2.4
2023-01-29T02:34:51.361Z,2.4
2023-01-29T02:39:51.303Z,2.4
2023-01-29T02:44:51.306Z,2.4
2023-01-29T02:49:51.416Z,2.4
2023-01-29T02:54:51.318Z,2.4
2023-01-29T02:59:51.317Z,2.5
2023-01-29T03:04:51.348Z,2.4
2023-01-29T03:09:51.332Z,2.4
2023-01-29T03:14:51.327Z,2.4
2023-01-29T03:19:51.368Z,2.4
2023-01-29T03:24:51.337Z,2.4
2023-01-29T03:29:51.333Z,2.4
2023-01-29T03:34:51.350Z,2.4
2023-01-29T03:39:51.332Z,2.4
2023-01-29T03:44:51.351Z,2.4
2023-01-29T03:49:51.357Z,2.4
2023-01-29T03:54:51.368Z,2.4
2023-01-29T03:59:51.347Z,2.4
2023-01-29T04:04:51.367Z,2.3
2023-01-29T04:09:51.355Z,2.3
2023-01-29T04:14:51.359Z,2.3
2023-01-29T04:19:51.412Z,2.3
2023-01-29T04:24:51.362Z,2.3
2023-01-29T04:29:51.371Z,2.2
2023-01-29T04:34:51.399Z,2.2
2023-01-29T04:39:51.378Z,2.3
2023-01-29T04:44:51.375Z,2.3
2023-01-29T04:49:51.439Z,2.2
2023-01-29T04:54:51.389Z,2.2
2023-01-29T04:59:51.393Z,2.2
2023-01-29T05:04:51.421Z,2.2
2023-01-29T05:09:51.391Z,2.2
2023-01-29T05:14:51.394Z,2.2
2023-01-29T05:19:51.402Z,2.2
2023-01-29T05:24:51.406Z,2.1
2023-01-29T05:29:51.397Z,2.1
2023-01-29T05:34:51.423Z,2.0
2023-01-29T05:39:51.408Z,2.0
2023-01-29T05:44:51.461Z,2.0
2023-01-29T05:49:51.519Z,1.9
2023-01-29T05:54:51.425Z,1.9
2023-01-29T05:59:51.423Z,1.9
2023-01-29T06:04:51.438Z,1.9
2023-01-29T06:09:51.420Z,1.9
2023-01-29T06:14:51.435Z,1.9
2023-01-29T06:19:51.441Z,1.9
2023-01-29T06:24:51.435Z,1.9
2023-01-29T06:29:51.434Z,1.9
2023-01-29T06:34:51.454Z,1.9
2023-01-29T06:39:51.440Z,1.9
2023-01-29T06:44:51.449Z,1.9
2023-01-29T06:49:51.548Z,2.0
2023-01-29T06:54:51.446Z,2.0
2023-01-29T06:59:51.456Z,2.0
2023-01-29T07:04:51.477Z,2.0
2023-01-29T07:09:51.466Z,2.0
2023-01-29T07:14:51.455Z,2.0
2023-01-29T07:19:51.469Z,2.0
2023-01-29T07:24:51.463Z,2.0
2023-01-29T07:29:51.462Z,2.0
2023-01-29T07:34:51.498Z,2.0
2023-01-29T07:39:51.468Z,2.0
2023-01-29T07:44:51.494Z,2.0
2023-01-29T07:49:51.481Z,2.0
2023-01-29T07:54:51.513Z,2.0
2023-01-29T07:59:51.481Z,2.1
2023-01-29T08:04:51.514Z,2.1
2023-01-29T08:09:51.488Z,2.1
2023-01-29T08:14:51.500Z,2.1
2023-01-29T08:19:51.556Z,2.2
2023-01-29T08:24:54.305Z,2.3
2023-01-29T08:29:51.500Z,2.3
2023-01-29T08:34:51.523Z,2.4
2023-01-29T08:39:51.507Z,2.5
2023-01-29T08:44:51.511Z,2.7
2023-01-29T08:49:51.512Z,2.7
2023-01-29T08:54:51.509Z,2.8
2023-01-29T08:59:51.521Z,2.8
2023-01-29T09:04:51.530Z,2.9
2023-01-29T09:09:51.523Z,3.0
2023-01-29T09:14:51.539Z,3.1
2023-01-29T09:19:51.532Z,3.1
2023-01-29T09:24:51.522Z,3.2
2023-01-29T09:29:51.528Z,3.2
2023-01-29T09:34:51.622Z,3.3
2023-01-29T09:39:51.540Z,3.3
2023-01-29T09:44:51.543Z,3.4
2023-01-29T09:49:51.559Z,3.4
2023-01-29T09:54:51.545Z,3.4
2023-01-29T09:59:51.568Z,3.4
2023-01-29T10:04:51.670Z,3.4
2023-01-29T10:09:51.560Z,3.5
2023-01-29T10:14:51.555Z,3.5
2023-01-29T10:19:51.577Z,3.5
2023-01-29T10:24:51.571Z,3.6
2023-01-29T10:29:51.567Z,3.6
2023-01-29T10:34:51.596Z,3.7
2023-01-29T10:39:51.574Z,3.7
2023-01-29T10:44:51.572Z,3.8
2023-01-29T10:49:51.625Z,3.8
2023-01-29T10:54:51.575Z,3.8
2023-01-29T10:59:51.585Z,3.8
2023-01-29T11:04:51.606Z,3.8
2023-01-29T11:09:51.594Z,3.7
2023-01-29T11:14:51.608Z,3.7
2023-01-29T11:19:51.687Z,3.7
2023-01-29T11:24:51.590Z,3.7
2023-01-29T11:29:51.592Z,3.8
2023-01-29T11:34:51.646Z,3.8
2023-01-29T11:39:51.599Z,3.9
2023-01-29T11:44:51.602Z,3.9
2023-01-29T11:49:51.632Z,4.0
2023-01-29T11:54:51.611Z,4.0
2023-01-29T11:59:51.636Z,3.9
2023-01-29T12:04:51.635Z,3.9
2023-01-29T12:09:51.616Z,4.0
2023-01-29T12:14:51.618Z,4.0
2023-01-29T12:19:51.640Z,3.8
2023-01-29T12:24:51.636Z,3.8
2023-01-29T12:29:51.634Z,3.8
2023-01-29T12:34:51.645Z,3.9
2023-01-29T12:39:51.636Z,3.9
2023-01-29T12:44:51.647Z,3.8
2023-01-29T12:49:51.651Z,3.8
2023-01-29T12:54:51.638Z,3.8
2023-01-29T12:59:51.682Z,3.7
2023-01-29T13:04:51.683Z,3.6
2023-01-29T13:09:51.660Z,3.5
2023-01-29T13:14:51.649Z,3.5
2023-01-29T13:19:51.671Z,3.5
2023-01-29T13:25:03.699Z,3.5
2023-01-29T13:29:51.662Z,3.5
2023-01-29T13:34:51.772Z,3.5
2023-01-29T13:39:51.669Z,3.6
2023-01-29T13:44:51.680Z,3.5
2023-01-29T13:49:51.811Z,3.6
2023-01-29T13:54:51.670Z,3.7
2023-01-29T13:59:51.682Z,3.9
2023-01-29T14:04:51.731Z,4.0
2023-01-29T14:09:51.683Z,4.1
2023-01-29T14:14:51.697Z,4.2
2023-01-29T14:19:51.705Z,4.2
2023-01-29T14:24:51.691Z,4.2
2023-01-29T14:29:51.707Z,4.1
2023-01-29T14:34:51.729Z,4.0
2023-01-29T14:39:51.780Z,4.0
2023-01-29T14:44:51.697Z,4.0
2023-01-29T14:49:51.740Z,4.0
2023-01-29T14:54:51.719Z,4.0
2023-01-29T14:59:51.714Z,3.9
2023-01-29T15:04:51.728Z,3.9
2023-01-29T15:09:51.720Z,3.9
2023-01-29T15:14:51.720Z,3.9
2023-01-29T15:19:51.730Z,4.0
2023-01-29T15:24:51.724Z,4.0
2023-01-29T15:29:51.739Z,3.9
2023-01-29T15:34:51.751Z,3.9
2023-01-29T15:39:53.128Z,3.9
2023-01-29T15:44:51.741Z,3.8
2023-01-29T15:49:51.754Z,3.8
2023-01-29T15:54:51.740Z,3.8
2023-01-29T15:59:51.771Z,3.8
2023-01-29T16:04:51.798Z,3.7
2023-01-29T16:09:51.758Z,3.7
2023-01-29T16:14:51.754Z,3.7
2023-01-29T16:19:51.775Z,3.6
2023-01-29T16:24:51.766Z,3.6
2023-01-29T16:29:51.782Z,3.6
2023-01-29T16:34:51.779Z,3.5
2023-01-29T16:39:51.774Z,3.5
2023-01-29T16:44:51.776Z,3.4
2023-01-29T16:49:51.776Z,3.3
2023-01-29T16:54:51.791Z,3.3
2023-01-29T16:59:51.785Z,3.2
2023-01-29T17:04:51.799Z,3.1
2023-01-29T17:09:51.821Z,3.1
2023-01-29T17:14:51.791Z,3.1
2023-01-29T17:19:51.802Z,3.1
2023-01-29T17:24:51.796Z,3.1
2023-01-29T17:29:52.782Z,3.1
2023-01-29T17:34:51.828Z,3.1
2023-01-29T17:39:51.798Z,3.1
2023-01-29T17:44:51.809Z,3.1
2023-01-29T17:49:51.856Z,3.1
2023-01-29T17:54:51.811Z,3.1
2023-01-29T17:59:51.816Z,3.1
2023-01-29T18:04:52.301Z,3.1
2023-01-29T18:09:51.817Z,3.2
2023-01-29T18:14:51.828Z,3.2
2023-01-29T18:19:51.942Z,3.2
2023-01-29T18:24:51.824Z,3.3
2023-01-29T18:29:51.827Z,3.3
2023-01-29T18:34:51.834Z,3.4
2023-01-29T18:39:51.898Z,3.4
2023-01-29T18:44:51.842Z,3.4
2023-01-29T18:49:51.924Z,3.4
2023-01-29T18:54:51.835Z,3.4
2023-01-29T18:59:51.893Z,3.4
2023-01-29T19:04:51.855Z,3.5
2023-01-29T19:09:51.938Z,3.5
2023-01-29T19:14:51.864Z,3.5
2023-01-29T19:19:51.872Z,3.5
2023-01-29T19:24:51.896Z,3.5
2023-01-29T19:29:51.869Z,3.6
2023-01-29T19:34:51.861Z,3.6
2023-01-29T19:39:51.887Z,3.6
2023-01-29T19:44:51.870Z,3.6
2023-01-29T19:49:51.982Z,3.6
2023-01-29T19:54:51.872Z,3.6
2023-01-29T19:59:51.873Z,3.6
2023-01-29T20:04:51.887Z,3.6
2023-01-29T20:09:52.793Z,3.6
2023-01-29T20:14:51.891Z,3.6
2023-01-29T20:19:51.956Z,3.6
2023-01-29T20:24:51.889Z,3.7
2023-01-29T20:29:51.900Z,3.7
2023-01-29T20:34:51.956Z,3.7
2023-01-29T20:39:51.923Z,3.8
2023-01-29T20:44:51.909Z,3.8
2023-01-29T20:49:51.917Z,3.8
2023-01-29T20:54:51.907Z,3.8
2023-01-29T20:59:51.908Z,3.9
2023-01-29T21:04:51.924Z,3.9
2023-01-29T21:09:51.929Z,3.9
2023-01-29T21:14:51.912Z,3.9
2023-01-29T21:19:52.104Z,3.9
2023-01-29T21:24:51.920Z,4.0
2023-01-29T21:29:51.933Z,4.0
2023-01-29T21:34:52.699Z,4.1
2023-01-29T21:39:51.951Z,4.1
2023-01-29T21:44:51.937Z,4.1
2023-01-29T21:49:51.934Z,4.1
2023-01-29T21:54:51.961Z,4.1
2023-01-29T21:59:53.296Z,4.1
2023-01-29T22:04:51.944Z,4.1
2023-01-29T22:09:51.968Z,4.1
2023-01-29T22:14:51.951Z,4.1
2023-01-29T22:19:51.949Z,4.2
2023-01-29T22:24:51.958Z,4.2
2023-01-29T22:29:51.959Z,4.2
2023-01-29T22:34:51.960Z,4.3
2023-01-29T22:39:52.009Z,4.3
2023-01-29T22:44:51.964Z,4.3
2023-01-29T22:49:51.970Z,4.4
2023-01-29T22:54:51.976Z,4.4
2023-01-29T22:59:51.988Z,4.4
2023-01-29T23:04:52.060Z,4.4
2023-01-29T23:09:51.995Z,4.5
2023-01-29T23:14:51.977Z,4.5
2023-01-29T23:19:51.989Z,4.6
2023-01-29T23:24:52.214Z,4.6
2023-01-29T23:29:51.993Z,4.6
2023-01-29T23:34:51.993Z,4.7
2023-01-29T23:39:52.014Z,4.7
2023-01-29T23:44:52.001Z,4.7
2023-01-29T23:49:52.001Z,4.8
2023-01-29T23:54:52.025Z,4.8
2023-01-29T23:59:52.021Z,4.9
